Time;durP1;ratioP1;P1;durP2;ratioP2;P2;SDS_P1;SDS_P2;PMS_P1;PMS_P2;Temp;Humidity;BMP_temperature;BMP_pressure;BME280_temperature;BME280_humidity;BME280_pressure;Samples;Min_cycle;Max_cycle;Signal;HPM_P1;HPM_P2
2021/09/28 00:00:46;;;;;;;0.30;0.30;;;16.10;99.90;;;;;;4980927;28;20473;-85
2021/09/28 00:03:13;;;;;;;0.40;0.40;;;16.10;99.90;;;;;;4982878;28;20492;-87
2021/09/28 00:05:41;;;;;;;0.30;0.30;;;16.00;99.90;;;;;;4977466;28;20453;-88
2021/09/28 00:08:08;;;;;;;0.30;0.30;;;15.90;99.90;;;;;;4977126;28;20450;-86
2021/09/28 00:10:35;;;;;;;0.40;0.40;;;15.90;99.90;;;;;;4977322;28;20470;-87
2021/09/28 00:13:03;;;;;;;0.30;0.30;;;15.90;99.90;;;;;;4977238;28;20459;-88
2021/09/28 00:15:29;;;;;;;0.30;0.27;;;15.80;99.90;;;;;;4977303;28;20518;-87
2021/09/28 00:17:56;;;;;;;0.50;0.30;;;15.70;99.90;;;;;;4977013;28;20453;-88
2021/09/28 00:20:24;;;;;;;0.30;0.30;;;15.80;99.90;;;;;;4977024;28;20981;-87
2021/09/28 00:22:54;;;;;;;0.30;0.30;;;15.80;99.90;;;;;;4977159;28;20536;-88
2021/09/28 00:25:21;;;;;;;0.40;0.30;;;15.80;99.90;;;;;;4977837;28;20794;-88
2021/09/28 00:27:48;;;;;;;0.40;0.30;;;15.80;99.90;;;;;;4976958;28;20462;-87
2021/09/28 00:30:15;;;;;;;0.37;0.30;;;15.70;99.90;;;;;;4977074;28;20468;-87
2021/09/28 00:32:42;;;;;;;0.30;0.20;;;15.60;99.90;;;;;;4977066;28;20445;-87
2021/09/28 00:35:09;;;;;;;0.40;0.37;;;15.60;99.90;;;;;;4976855;28;20457;-86
2021/09/28 00:37:36;;;;;;;0.33;0.30;;;15.50;99.90;;;;;;4976537;28;20453;-86
2021/09/28 00:40:05;;;;;;;0.40;0.30;;;15.50;99.90;;;;;;4976272;28;20477;-85
2021/09/28 00:42:32;;;;;;;0.30;0.20;;;15.30;99.90;;;;;;4975917;28;21007;-84
2021/09/28 00:44:59;;;;;;;0.40;0.30;;;15.10;99.90;;;;;;4976213;28;20449;-84
2021/09/28 00:47:25;;;;;;;0.40;0.30;;;14.90;99.90;;;;;;4975779;28;20929;-83
2021/09/28 00:49:52;;;;;;;0.30;0.20;;;14.80;99.90;;;;;;4975975;28;20474;-83
2021/09/28 00:52:20;;;;;;;0.40;0.30;;;14.70;99.90;;;;;;4975829;28;20450;-86
2021/09/28 00:54:47;;;;;;;0.30;0.20;;;14.50;99.90;;;;;;4976676;28;20452;-84
2021/09/28 00:57:16;;;;;;;0.40;0.30;;;14.40;99.90;;;;;;4975919;28;20461;-83
2021/09/28 00:59:43;;;;;;;0.30;0.20;;;14.30;99.90;;;;;;4975821;28;20473;-83
2021/09/28 01:02:12;;;;;;;0.40;0.30;;;14.20;99.90;;;;;;4975416;28;20481;-83
2021/09/28 01:04:39;;;;;;;0.30;0.27;;;14.00;99.90;;;;;;4975472;28;20462;-83
2021/09/28 01:07:08;;;;;;;0.30;0.30;;;14.00;99.90;;;;;;4975734;28;20449;-83
2021/09/28 01:09:36;;;;;;;0.40;0.30;;;14.00;99.90;;;;;;4975116;28;21026;-82
2021/09/28 01:12:04;;;;;;;0.60;0.30;;;14.00;99.90;;;;;;4975345;28;20449;-83
2021/09/28 01:14:32;;;;;;;0.73;0.30;;;13.90;99.90;;;;;;4975579;28;20465;-82
2021/09/28 01:16:58;;;;;;;0.30;0.30;;;13.90;99.90;;;;;;4975502;28;20460;-82
2021/09/28 01:19:25;;;;;;;0.30;0.30;;;13.90;99.90;;;;;;4975079;28;20456;-82
2021/09/28 01:21:53;;;;;;;0.30;0.30;;;13.90;99.90;;;;;;4975324;28;20489;-83
2021/09/28 01:24:20;;;;;;;0.30;0.30;;;13.90;99.90;;;;;;4975384;28;20459;-83
2021/09/28 01:26:47;;;;;;;0.40;0.30;;;14.00;99.90;;;;;;4975389;28;20437;-83
2021/09/28 01:29:13;;;;;;;0.50;0.30;;;14.00;99.90;;;;;;4974983;28;20445;-83
2021/09/28 01:31:41;;;;;;;0.30;0.30;;;14.00;99.90;;;;;;4975298;28;20460;-83
2021/09/28 01:34:08;;;;;;;0.30;0.20;;;13.90;99.90;;;;;;4974925;28;20983;-83
2021/09/28 01:36:35;;;;;;;0.30;0.30;;;14.00;99.90;;;;;;4974900;28;20445;-83
2021/09/28 01:39:04;;;;;;;0.40;0.40;;;13.90;99.90;;;;;;4975169;28;20454;-83
2021/09/28 01:41:31;;;;;;;0.30;0.30;;;13.90;99.90;;;;;;4974968;28;20480;-83
2021/09/28 01:44:05;;;;;;;0.30;0.30;;;13.90;99.90;;;;;;4975115;28;20449;-83
2021/09/28 01:46:32;;;;;;;0.30;0.30;;;13.90;99.90;;;;;;4975045;28;20451;-83
2021/09/28 01:48:59;;;;;;;0.40;0.30;;;13.90;99.90;;;;;;4975001;28;20480;-84
2021/09/28 01:51:26;;;;;;;0.30;0.30;;;13.80;99.90;;;;;;4974929;28;20477;-83
2021/09/28 01:53:53;;;;;;;0.30;0.30;;;13.80;99.90;;;;;;4974636;28;20937;-84
2021/09/28 01:56:22;;;;;;;0.40;0.40;;;13.80;99.90;;;;;;4974867;28;20449;-83
2021/09/28 01:58:49;;;;;;;0.50;0.30;;;13.80;99.90;;;;;;4974866;28;20461;-84
2021/09/28 02:01:16;;;;;;;0.30;0.30;;;13.80;99.90;;;;;;4974461;28;20841;-83
2021/09/28 02:03:43;;;;;;;0.30;0.30;;;13.80;99.90;;;;;;4974563;28;20492;-83
2021/09/28 02:06:10;;;;;;;0.67;0.40;;;13.80;99.90;;;;;;4973783;28;20974;-84
2021/09/28 02:08:37;;;;;;;0.40;0.30;;;13.80;99.90;;;;;;4974457;28;20489;-83
2021/09/28 02:11:04;;;;;;;0.30;0.30;;;13.80;99.90;;;;;;4974593;28;20473;-83
2021/09/28 02:13:32;;;;;;;0.30;0.30;;;13.80;99.90;;;;;;4974683;28;20492;-84
2021/09/28 02:15:59;;;;;;;0.30;0.20;;;13.80;99.90;;;;;;4974652;28;20457;-79
2021/09/28 02:18:26;;;;;;;0.30;0.30;;;13.80;99.90;;;;;;4974321;28;20449;-79
2021/09/28 02:20:52;;;;;;;0.30;0.30;;;13.70;99.90;;;;;;4974504;28;20481;-79
2021/09/28 02:23:19;;;;;;;1.53;0.30;;;13.70;99.90;;;;;;4974218;28;20489;-79
2021/09/28 02:25:46;;;;;;;0.30;0.20;;;13.70;99.90;;;;;;4974522;28;20460;-78
2021/09/28 02:28:13;;;;;;;0.30;0.30;;;13.70;99.90;;;;;;4974580;28;20811;-78
2021/09/28 02:30:41;;;;;;;0.33;0.33;;;13.70;99.90;;;;;;4974461;28;20457;-78
2021/09/28 02:33:08;;;;;;;0.50;0.50;;;13.60;99.90;;;;;;4974491;28;20457;-78
2021/09/28 02:35:35;;;;;;;0.40;0.37;;;13.60;99.90;;;;;;4974204;28;20991;-77
2021/09/28 02:38:01;;;;;;;0.40;0.40;;;13.60;99.90;;;;;;4974465;28;20456;-78
2021/09/28 02:40:28;;;;;;;0.30;0.30;;;13.60;99.90;;;;;;4974358;28;20473;-83
2021/09/28 02:42:55;;;;;;;0.50;0.40;;;13.50;99.90;;;;;;4974076;28;21003;-83
2021/09/28 02:45:22;;;;;;;0.30;0.27;;;13.50;99.90;;;;;;4974405;28;20479;-84
2021/09/28 02:47:50;;;;;;;0.30;0.20;;;13.50;99.90;;;;;;4974142;28;20440;-84
2021/09/28 02:50:17;;;;;;;0.30;0.30;;;13.50;99.90;;;;;;4974094;28;20457;-84
2021/09/28 02:52:44;;;;;;;0.40;0.33;;;13.50;99.90;;;;;;4974337;28;20457;-83
2021/09/28 02:55:11;;;;;;;0.40;0.30;;;13.50;99.90;;;;;;4974024;28;20961;-84
2021/09/28 02:57:37;;;;;;;0.30;0.30;;;13.50;99.90;;;;;;4973849;28;20831;-82
2021/09/28 03:00:06;;;;;;;0.40;0.30;;;13.50;99.90;;;;;;4974239;28;20469;-82
2021/09/28 03:02:33;;;;;;;0.30;0.20;;;13.50;99.90;;;;;;4974366;28;20809;-82
2021/09/28 03:05:01;;;;;;;0.40;0.37;;;13.50;99.90;;;;;;4973926;28;20973;-82
2021/09/28 03:07:28;;;;;;;0.40;0.37;;;13.50;99.90;;;;;;4973863;28;20456;-82
2021/09/28 03:09:55;;;;;;;0.40;0.30;;;13.50;99.90;;;;;;4973840;28;20481;-83
2021/09/28 03:12:22;;;;;;;0.30;0.30;;;13.50;99.90;;;;;;4973857;28;20445;-83
2021/09/28 03:14:48;;;;;;;0.40;0.30;;;13.50;99.90;;;;;;4973844;28;20976;-83
2021/09/28 03:17:15;;;;;;;0.40;0.30;;;13.40;99.90;;;;;;4976532;28;20964;-82
2021/09/28 03:19:42;;;;;;;0.40;0.30;;;13.40;99.90;;;;;;4977465;28;20481;-82
2021/09/28 03:22:10;;;;;;;0.73;0.73;;;13.40;99.90;;;;;;4977340;28;20812;-82
2021/09/28 03:24:37;;;;;;;0.30;0.30;;;13.40;99.90;;;;;;4977588;28;20452;-83
2021/09/28 03:27:04;;;;;;;4.10;0.40;;;13.40;99.90;;;;;;4977562;28;20476;-82
2021/09/28 03:29:31;;;;;;;0.30;0.30;;;13.40;99.90;;;;;;4977875;28;20804;-82
2021/09/28 03:31:57;;;;;;;0.40;0.30;;;13.40;99.90;;;;;;4977197;28;20489;-82
2021/09/28 03:34:24;;;;;;;0.30;0.30;;;13.30;99.90;;;;;;4977420;28;20449;-83
2021/09/28 03:36:51;;;;;;;0.77;0.30;;;13.30;99.90;;;;;;4977368;28;20454;-83
2021/09/28 03:39:19;;;;;;;0.30;0.30;;;13.30;99.90;;;;;;4977280;28;20453;-83
2021/09/28 03:41:46;;;;;;;0.30;0.30;;;13.20;99.90;;;;;;4977315;28;20526;-79
2021/09/28 03:44:12;;;;;;;0.50;0.50;;;13.20;99.90;;;;;;4977236;28;20489;-79
2021/09/28 03:46:39;;;;;;;0.40;0.30;;;13.20;99.90;;;;;;4977237;28;20460;-79
2021/09/28 03:49:06;;;;;;;0.60;0.30;;;13.20;99.90;;;;;;4976891;28;20819;-79
2021/09/28 03:51:33;;;;;;;0.40;0.30;;;13.20;99.90;;;;;;4977053;28;20493;-79
2021/09/28 03:53:59;;;;;;;0.30;0.30;;;13.10;99.90;;;;;;4977053;28;20456;-79
2021/09/28 03:56:27;;;;;;;0.40;0.30;;;13.10;99.90;;;;;;4977018;28;20461;-78
2021/09/28 03:58:54;;;;;;;0.30;0.30;;;13.00;99.90;;;;;;4977018;28;20449;-83
2021/09/28 04:01:21;;;;;;;0.30;0.30;;;13.00;99.90;;;;;;4977616;28;20473;-82
2021/09/28 04:03:48;;;;;;;0.33;0.30;;;13.00;99.90;;;;;;4976621;28;20584;-82
2021/09/28 04:06:14;;;;;;;0.30;0.30;;;12.90;99.90;;;;;;4976856;28;20453;-82
2021/09/28 04:08:41;;;;;;;0.33;0.30;;;12.90;99.90;;;;;;4976870;28;20496;-82
2021/09/28 04:11:08;;;;;;;0.40;0.30;;;12.90;99.90;;;;;;4976432;28;20985;-82
2021/09/28 04:13:36;;;;;;;0.30;0.20;;;12.90;99.90;;;;;;4976473;28;20449;-83
2021/09/28 04:16:05;;;;;;;0.43;0.37;;;12.80;99.90;;;;;;4976422;28;21003;-82
2021/09/28 04:18:32;;;;;;;0.30;0.20;;;12.80;99.90;;;;;;4976643;28;20460;-83
2021/09/28 04:20:59;;;;;;;0.30;0.30;;;12.70;99.90;;;;;;4976577;28;20500;-83
2021/09/28 04:23:26;;;;;;;0.40;0.30;;;12.70;99.90;;;;;;4976505;28;20572;-83
2021/09/28 04:25:53;;;;;;;0.40;0.40;;;12.70;99.90;;;;;;4976200;28;20457;-82
2021/09/28 04:28:20;;;;;;;0.40;0.30;;;12.60;99.90;;;;;;4975501;28;20458;-83
2021/09/28 04:30:48;;;;;;;0.90;0.50;;;12.60;99.90;;;;;;4976153;28;20469;-83
2021/09/28 04:33:15;;;;;;;0.30;0.30;;;12.60;99.90;;;;;;4976417;28;20446;-83
2021/09/28 04:35:41;;;;;;;1.73;0.30;;;12.50;99.90;;;;;;4976344;28;20468;-83
2021/09/28 04:38:08;;;;;;;0.40;0.30;;;12.50;99.90;;;;;;4976262;28;20449;-83
2021/09/28 04:40:35;;;;;;;0.40;0.30;;;12.40;99.90;;;;;;4976209;28;20476;-82
2021/09/28 04:43:02;;;;;;;0.50;0.50;;;12.40;99.90;;;;;;4976091;28;20496;-83
2021/09/28 04:45:28;;;;;;;6.63;0.90;;;12.40;99.90;;;;;;4976139;28;20449;-83
2021/09/28 04:47:56;;;;;;;0.30;0.30;;;12.40;99.90;;;;;;4975816;28;20977;-83
2021/09/28 04:50:23;;;;;;;0.30;0.30;;;12.40;99.90;;;;;;4975986;28;20480;-82
2021/09/28 04:52:50;;;;;;;0.30;0.30;;;12.40;99.90;;;;;;4976088;28;20453;-78
2021/09/28 04:55:17;;;;;;;0.50;0.30;;;12.30;99.90;;;;;;4975949;28;20450;-78
2021/09/28 04:57:43;;;;;;;0.30;0.30;;;12.30;99.90;;;;;;4975864;28;20464;-78
2021/09/28 05:00:11;;;;;;;0.30;0.30;;;12.20;99.90;;;;;;4975774;28;20477;-78
2021/09/28 05:02:38;;;;;;;2.53;0.30;;;12.20;99.90;;;;;;4975754;28;20453;-78
2021/09/28 05:05:07;;;;;;;0.30;0.30;;;12.20;99.90;;;;;;4975798;28;20450;-78
2021/09/28 05:07:33;;;;;;;1.70;0.30;;;12.20;99.90;;;;;;4975771;28;20460;-78
2021/09/28 05:10:00;;;;;;;0.80;0.40;;;12.20;99.90;;;;;;4975148;28;20484;-78
2021/09/28 05:12:27;;;;;;;0.40;0.30;;;12.20;99.90;;;;;;4975676;28;20805;-78
2021/09/28 05:14:56;;;;;;;0.40;0.30;;;12.20;99.90;;;;;;4975587;28;20808;-78
2021/09/28 05:17:23;;;;;;;0.30;0.30;;;12.20;99.90;;;;;;4975510;28;20460;-78
2021/09/28 05:19:49;;;;;;;0.30;0.30;;;12.20;99.90;;;;;;4975146;28;20844;-78
2021/09/28 05:22:17;;;;;;;0.30;0.30;;;12.10;99.90;;;;;;4975157;28;20957;-78
2021/09/28 05:24:44;;;;;;;0.40;0.40;;;12.20;99.90;;;;;;4975344;28;20485;-78
2021/09/28 05:27:11;;;;;;;0.40;0.30;;;12.10;99.90;;;;;;4975370;28;20452;-78
2021/09/28 05:29:38;;;;;;;0.40;0.30;;;12.10;99.90;;;;;;4975225;28;20478;-78
2021/09/28 05:32:05;;;;;;;0.30;0.30;;;12.10;99.90;;;;;;4976073;28;20460;-78
2021/09/28 05:34:32;;;;;;;0.30;0.30;;;12.10;99.90;;;;;;4975186;28;20453;-78
2021/09/28 05:36:59;;;;;;;1.07;0.50;;;12.10;99.90;;;;;;4974921;28;20453;-78
2021/09/28 05:39:27;;;;;;;0.40;0.30;;;12.10;99.90;;;;;;4974924;28;20457;-78
2021/09/28 05:41:54;;;;;;;0.40;0.30;;;12.10;99.90;;;;;;4975125;28;20453;-78
2021/09/28 05:44:21;;;;;;;0.40;0.40;;;12.10;99.90;;;;;;4974957;28;20489;-78
2021/09/28 05:46:48;;;;;;;0.40;0.30;;;12.00;99.90;;;;;;4974999;28;20449;-78
2021/09/28 05:49:14;;;;;;;0.30;0.30;;;12.00;99.90;;;;;;4974950;28;20506;-78
2021/09/28 05:51:50;;;;;;;0.30;0.30;;;12.00;99.90;;;;;;4974918;28;20453;-78
2021/09/28 05:54:19;;;;;;;0.30;0.30;;;12.00;99.90;;;;;;4974663;28;20436;-78
2021/09/28 05:56:47;;;;;;;0.30;0.30;;;12.00;99.90;;;;;;4974890;28;20458;-78
2021/09/28 05:59:14;;;;;;;0.40;0.30;;;12.00;99.90;;;;;;4974908;28;20460;-78
2021/09/28 06:01:40;;;;;;;0.40;0.40;;;11.90;99.90;;;;;;4974474;28;20457;-78
2021/09/28 06:04:07;;;;;;;0.40;0.40;;;12.00;99.90;;;;;;4974748;28;20481;-83
2021/09/28 06:06:34;;;;;;;9.63;1.57;;;12.00;99.90;;;;;;4974745;28;20464;-83
2021/09/28 06:09:01;;;;;;;0.50;0.30;;;12.10;99.90;;;;;;4974255;28;21013;-83
2021/09/28 06:11:28;;;;;;;0.47;0.30;;;12.10;99.90;;;;;;4974703;28;20473;-82
2021/09/28 06:13:57;;;;;;;0.40;0.30;;;12.20;99.90;;;;;;4974731;28;20452;-83
2021/09/28 06:16:24;;;;;;;0.50;0.40;;;12.30;99.90;;;;;;4974698;28;20453;-83
2021/09/28 06:18:50;;;;;;;0.40;0.30;;;12.40;99.90;;;;;;4974610;28;20472;-83
2021/09/28 06:21:17;;;;;;;0.50;0.30;;;12.40;99.90;;;;;;4974519;28;20477;-83
2021/09/28 06:23:44;;;;;;;0.40;0.30;;;12.50;99.90;;;;;;4974548;28;20497;-78
2021/09/28 06:26:11;;;;;;;0.63;0.30;;;12.60;99.90;;;;;;4974246;28;20941;-78
2021/09/28 06:28:37;;;;;;;0.40;0.40;;;12.70;99.90;;;;;;4974232;28;20453;-82
2021/09/28 06:31:05;;;;;;;2.43;0.40;;;12.70;99.90;;;;;;4974410;28;20484;-83
2021/09/28 06:33:32;;;;;;;0.70;0.60;;;12.70;99.90;;;;;;4974473;28;20453;-82
2021/09/28 06:35:59;;;;;;;0.30;0.30;;;12.80;99.90;;;;;;4974474;28;20457;-83
2021/09/28 06:38:26;;;;;;;0.40;0.30;;;12.90;99.90;;;;;;4974198;28;20448;-82
2021/09/28 06:40:53;;;;;;;0.80;0.37;;;12.90;99.90;;;;;;4974027;28;20477;-82
2021/09/28 06:43:20;;;;;;;0.40;0.30;;;12.90;99.90;;;;;;4974003;28;20969;-78
2021/09/28 06:45:46;;;;;;;0.47;0.30;;;12.90;99.90;;;;;;4974394;28;20453;-83
2021/09/28 06:48:15;;;;;;;0.30;0.30;;;13.00;99.90;;;;;;4974099;28;20456;-83
2021/09/28 06:50:42;;;;;;;0.43;0.40;;;13.00;99.90;;;;;;4974665;28;20488;-83
2021/09/28 06:53:09;;;;;;;0.40;0.30;;;13.10;99.90;;;;;;4977897;28;20457;-83
2021/09/28 06:55:37;;;;;;;0.30;0.30;;;13.10;99.90;;;;;;4977820;28;20454;-79
2021/09/28 06:58:04;;;;;;;0.50;0.50;;;13.10;99.90;;;;;;4977844;28;20457;-83
2021/09/28 07:00:32;;;;;;;0.40;0.40;;;13.10;99.90;;;;;;4977946;28;20464;-83
2021/09/28 07:02:59;;;;;;;0.30;0.30;;;13.20;99.90;;;;;;4977772;28;20980;-83
2021/09/28 07:05:27;;;;;;;0.40;0.40;;;13.20;99.90;;;;;;4977886;28;20489;-83
2021/09/28 07:07:54;;;;;;;0.70;0.57;;;13.30;99.90;;;;;;4977905;28;20449;-83
2021/09/28 07:10:21;;;;;;;0.60;0.40;;;13.30;99.90;;;;;;4977344;28;20507;-83
2021/09/28 07:12:47;;;;;;;0.87;0.63;;;13.40;99.90;;;;;;4977566;28;20945;-82
2021/09/28 07:15:16;;;;;;;0.40;0.37;;;13.40;99.90;;;;;;4977775;28;20457;-83
2021/09/28 07:17:43;;;;;;;1.20;0.53;;;13.50;99.90;;;;;;4977744;28;20453;-83
2021/09/28 07:20:11;;;;;;;1.43;0.33;;;13.50;99.90;;;;;;4977689;28;20546;-84
2021/09/28 07:22:40;;;;;;;0.40;0.37;;;13.50;99.90;;;;;;4977803;28;20449;-84
2021/09/28 07:25:07;;;;;;;0.40;0.40;;;13.50;99.90;;;;;;4977353;28;20484;-84
2021/09/28 07:27:34;;;;;;;0.80;0.40;;;13.50;99.90;;;;;;4977278;28;20453;-83
2021/09/28 07:30:00;;;;;;;0.40;0.40;;;13.50;99.90;;;;;;4977241;28;21003;-84
2021/09/28 07:32:27;;;;;;;0.40;0.40;;;13.60;99.90;;;;;;4977256;28;20964;-78
2021/09/28 07:34:54;;;;;;;0.53;0.40;;;13.70;99.90;;;;;;4977098;28;20904;-77
2021/09/28 07:37:26;;;;;;;0.40;0.30;;;13.80;99.90;;;;;;4977106;28;20945;-78
2021/09/28 07:39:54;;;;;;;0.40;0.40;;;13.90;99.90;;;;;;4977066;28;20473;-78
2021/09/28 07:42:21;;;;;;;0.60;0.50;;;13.90;99.90;;;;;;4977268;28;20449;-78
2021/09/28 07:44:49;;;;;;;0.50;0.40;;;14.00;99.90;;;;;;4977161;28;20493;-78
2021/09/28 07:47:15;;;;;;;0.50;0.40;;;14.00;99.90;;;;;;4977233;28;20453;-83
2021/09/28 07:49:42;;;;;;;0.40;0.33;;;14.00;99.90;;;;;;4976997;28;20480;-83
2021/09/28 07:52:09;;;;;;;0.40;0.37;;;14.10;99.90;;;;;;4977014;28;20512;-83
2021/09/28 07:54:38;;;;;;;0.60;0.40;;;14.20;99.90;;;;;;4977128;28;20449;-79
2021/09/28 07:57:06;;;;;;;0.30;0.30;;;14.30;99.90;;;;;;4976747;28;20992;-79
2021/09/28 07:59:33;;;;;;;1.13;1.03;;;14.40;99.90;;;;;;4976935;28;20524;-80
2021/09/28 08:02:00;;;;;;;0.80;0.40;;;14.50;99.90;;;;;;4976418;28;20456;-86
2021/09/28 08:04:27;;;;;;;0.40;0.30;;;14.60;99.90;;;;;;4976397;28;20488;-80
2021/09/28 08:06:55;;;;;;;0.60;0.40;;;14.60;99.90;;;;;;4976914;28;20457;-82
2021/09/28 08:09:21;;;;;;;0.50;0.47;;;14.70;99.90;;;;;;4976201;28;21142;-79
2021/09/28 08:11:48;;;;;;;0.73;0.60;;;14.90;99.90;;;;;;4976752;28;20449;-79
2021/09/28 08:14:16;;;;;;;0.40;0.30;;;15.10;99.90;;;;;;4976847;28;20441;-84
2021/09/28 08:16:43;;;;;;;0.40;0.40;;;15.30;99.90;;;;;;4976898;28;20456;-86
2021/09/28 08:19:10;;;;;;;0.43;0.33;;;15.30;99.90;;;;;;4978889;28;20456;-86
2021/09/28 08:21:36;;;;;;;0.50;0.50;;;15.50;99.90;;;;;;4979027;28;21001;-86
2021/09/28 08:24:03;;;;;;;0.30;0.30;;;15.70;99.90;;;;;;4978965;28;20489;-86
2021/09/28 08:29:17;;;;;;;1.37;0.97;;;16.20;99.90;;;;;;4976871;28;20778;-82
2021/09/28 08:31:46;;;;;;;0.77;0.33;;;16.50;99.90;;;;;;4978445;28;20464;-82
2021/09/28 08:34:14;;;;;;;2.00;1.50;;;16.70;99.90;;;;;;4977151;28;20520;-81
2021/09/28 08:36:41;;;;;;;0.40;0.40;;;16.60;99.90;;;;;;4976521;28;20449;-84
2021/09/28 08:39:11;;;;;;;0.40;0.30;;;16.60;99.90;;;;;;4976640;28;20960;-82
2021/09/28 08:41:39;;;;;;;0.50;0.40;;;16.60;99.90;;;;;;4978363;28;20469;-86
2021/09/28 08:44:06;;;;;;;1.43;0.60;;;16.70;99.90;;;;;;4977137;28;20493;-85
2021/09/28 08:46:34;;;;;;;0.40;0.30;;;16.80;99.90;;;;;;4978692;28;20453;-85
2021/09/28 08:49:01;;;;;;;0.83;0.47;;;16.60;99.90;;;;;;4977538;28;20454;-89
2021/09/28 08:51:29;;;;;;;0.40;0.30;;;16.50;99.90;;;;;;4978771;28;20473;-86
2021/09/28 08:53:56;;;;;;;1.40;0.50;;;16.30;99.90;;;;;;4976480;28;20456;-82
2021/09/28 08:56:24;;;;;;;3.43;0.77;;;16.00;99.90;;;;;;4976241;28;20485;-82
2021/09/28 08:58:56;;;;;;;0.40;0.30;;;15.70;99.90;;;;;;4976114;28;20878;-85
2021/09/28 09:01:23;;;;;;;0.30;0.30;;;15.60;99.90;;;;;;4979656;28;20472;-85
2021/09/28 09:03:51;;;;;;;0.57;0.50;;;15.70;99.90;;;;;;4976417;28;20446;-85
2021/09/28 09:06:18;;;;;;;0.40;0.40;;;16.00;99.90;;;;;;4976543;28;20461;-86
2021/09/28 09:08:48;;;;;;;6.57;0.53;;;16.30;99.90;;;;;;4976593;28;20481;-86
2021/09/28 09:11:17;;;;;;;0.50;0.40;;;16.70;99.90;;;;;;4977745;28;20481;-86
2021/09/28 09:13:46;;;;;;;0.43;0.40;;;17.50;99.90;;;;;;4975670;28;20453;-85
2021/09/28 09:16:15;;;;;;;2.33;0.40;;;17.80;99.90;;;;;;4976472;28;20925;-87
2021/09/28 09:18:43;;;;;;;0.50;0.50;;;17.60;99.90;;;;;;4976032;28;20817;-86
2021/09/28 09:21:14;;;;;;;1.60;0.50;;;17.30;99.90;;;;;;4976759;28;20473;-87
2021/09/28 09:23:41;;;;;;;0.40;0.40;;;17.10;99.90;;;;;;4978296;28;20433;-87
2021/09/28 09:26:13;;;;;;;1.77;0.40;;;17.30;99.90;;;;;;4978288;28;20491;-87
2021/09/28 09:28:44;;;;;;;0.50;0.50;;;17.60;99.90;;;;;;4977386;28;20813;-90
2021/09/28 09:31:24;;;;;;;0.50;0.37;;;18.10;99.90;;;;;;4976292;28;20548;-87
2021/09/28 09:33:53;;;;;;;0.40;0.40;;;18.60;99.90;;;;;;4976469;28;20441;-87
2021/09/28 09:36:23;;;;;;;0.70;0.40;;;18.90;99.90;;;;;;4976512;28;20795;-88
2021/09/28 09:38:53;;;;;;;0.50;0.40;;;19.10;99.90;;;;;;4975455;28;20965;-87
2021/09/28 09:41:26;;;;;;;0.40;0.40;;;19.20;99.90;;;;;;4976021;28;20469;-89
2021/09/28 09:44:01;;;;;;;0.37;0.33;;;19.20;99.90;;;;;;4975552;28;20433;-87
2021/09/28 09:46:40;;;;;;;0.50;0.50;;;19.10;99.90;;;;;;4976115;28;20517;-87
2021/09/28 09:49:07;;;;;;;0.87;0.43;;;19.00;99.90;;;;;;4975541;28;20905;-81
2021/09/28 09:51:43;;;;;;;0.40;0.33;;;19.20;99.90;;;;;;4975239;28;20469;-84
2021/09/28 09:54:10;;;;;;;1.10;0.80;;;19.40;99.90;;;;;;4977255;28;20446;-82
2021/09/28 09:56:45;;;;;;;0.50;0.40;;;19.40;99.90;;;;;;4975542;28;20465;-88
2021/09/28 09:59:12;;;;;;;6.07;0.70;;;19.60;99.90;;;;;;4975621;28;20873;-88
2021/09/28 10:01:39;;;;;;;0.40;0.40;;;19.90;99.90;;;;;;4976772;28;20457;-88
2021/09/28 10:04:07;;;;;;;0.40;0.40;;;20.30;99.90;;;;;;4977559;28;20457;-88
2021/09/28 10:06:34;;;;;;;0.40;0.40;;;20.80;99.90;;;;;;4976343;28;20481;-89
2021/09/28 10:09:05;;;;;;;0.50;0.40;;;21.00;99.90;;;;;;4976820;28;20477;-89
2021/09/28 10:11:35;;;;;;;0.47;0.47;;;21.20;99.90;;;;;;4976126;28;20843;-89
2021/09/28 10:14:02;;;;;;;0.80;0.50;;;21.30;99.90;;;;;;4977553;28;21002;-89
2021/09/28 10:16:38;;;;;;;0.50;0.50;;;21.50;99.90;;;;;;4978365;28;20449;-89
2021/09/28 10:19:26;;;;;;;0.50;0.40;;;21.80;99.40;;;;;;4977610;28;20440;-88
2021/09/28 10:21:54;;;;;;;0.40;0.40;;;21.90;98.20;;;;;;4975590;28;20859;-88
2021/09/28 10:24:29;;;;;;;0.50;0.50;;;22.20;97.00;;;;;;4974999;28;20456;-88
2021/09/28 10:27:31;;;;;;;0.40;0.40;;;22.60;95.80;;;;;;4974342;28;20459;-86
2021/09/28 10:29:57;;;;;;;0.57;0.57;;;22.80;95.60;;;;;;4975468;28;20455;-90
2021/09/28 10:32:47;;;;;;;0.80;0.80;;;23.30;94.00;;;;;;4976247;28;20452;-90
2021/09/28 10:35:17;;;;;;;1.80;0.60;;;23.90;92.10;;;;;;4976254;28;20453;-89
2021/09/28 10:37:55;;;;;;;0.40;0.40;;;24.00;91.00;;;;;;4975968;28;20481;-89
2021/09/28 10:40:48;;;;;;;0.50;0.50;;;23.40;91.10;;;;;;4981479;28;20229;-87
2021/09/28 10:43:30;;;;;;;0.60;0.60;;;22.60;92.90;;;;;;4970438;28;20282;-86
2021/09/28 10:46:00;;;;;;;0.80;0.60;;;21.70;93.50;;;;;;4975500;28;20480;-87
2021/09/28 10:48:35;;;;;;;0.80;0.60;;;20.90;94.20;;;;;;4974856;28;20511;-85
2021/09/28 10:51:11;;;;;;;0.77;0.77;;;21.10;93.20;;;;;;4975247;28;20468;-86
2021/09/28 10:53:40;;;;;;;0.50;0.50;;;21.30;92.00;;;;;;4974677;28;20443;-86
2021/09/28 10:56:10;;;;;;;0.50;0.50;;;21.20;92.40;;;;;;4974777;28;20803;-87
2021/09/28 10:58:55;;;;;;;0.70;0.70;;;21.10;91.40;;;;;;4974304;28;20460;-87
2021/09/28 11:01:24;;;;;;;0.60;0.60;;;20.70;93.40;;;;;;4974692;28;20468;-86
2021/09/28 11:04:11;;;;;;;0.47;0.47;;;20.60;93.60;;;;;;4974618;28;20453;-87
2021/09/28 11:07:17;;;;;;;0.67;0.60;;;20.40;92.90;;;;;;4974280;28;20498;-83
2021/09/28 11:09:51;;;;;;;0.70;0.70;;;20.20;94.50;;;;;;4961351;28;20488;-90
2021/09/28 11:12:23;;;;;;;0.53;0.53;;;19.90;95.30;;;;;;4974974;28;20500;-87
2021/09/28 11:14:57;;;;;;;0.70;0.70;;;19.70;94.80;;;;;;4974395;28;20430;-87
2021/09/28 11:17:24;;;;;;;0.60;0.60;;;19.60;94.30;;;;;;4974506;28;20445;-88
2021/09/28 11:19:50;;;;;;;0.70;0.70;;;19.40;95.30;;;;;;4974059;28;20476;-85
2021/09/28 11:22:23;;;;;;;3.33;0.83;;;19.30;95.60;;;;;;4974402;28;20449;-87
2021/09/28 11:24:52;;;;;;;0.50;0.50;;;19.20;95.10;;;;;;4974278;28;20512;-87
2021/09/28 11:27:20;;;;;;;0.90;0.80;;;19.10;95.00;;;;;;4974406;28;20437;-86
2021/09/28 11:29:47;;;;;;;1.43;0.90;;;19.00;94.70;;;;;;4974256;28;20473;-85
2021/09/28 11:32:15;;;;;;;0.53;0.53;;;18.70;94.80;;;;;;4974278;28;20449;-86
2021/09/28 11:34:44;;;;;;;1.77;0.80;;;18.50;96.10;;;;;;4974049;28;20449;-82
2021/09/28 11:37:11;;;;;;;0.57;0.57;;;18.50;97.40;;;;;;4974963;28;20449;-83
2021/09/28 11:39:41;;;;;;;0.60;0.60;;;18.60;97.40;;;;;;4977350;28;20469;-83
2021/09/28 11:42:09;;;;;;;1.83;0.70;;;18.70;97.00;;;;;;4977813;28;20453;-84
2021/09/28 11:44:40;;;;;;;0.70;0.60;;;18.80;96.70;;;;;;4977851;28;20449;-86
2021/09/28 11:47:18;;;;;;;0.83;0.63;;;18.60;96.50;;;;;;4977929;28;20434;-87
2021/09/28 11:49:46;;;;;;;1.07;1.07;;;18.40;97.80;;;;;;4977480;28;20468;-82
2021/09/28 11:52:13;;;;;;;0.50;0.50;;;18.40;97.50;;;;;;4977466;28;20523;-86
2021/09/28 11:54:43;;;;;;;0.40;0.40;;;18.30;97.20;;;;;;4977590;28;20453;-88
2021/09/28 11:57:10;;;;;;;0.60;0.60;;;18.20;96.80;;;;;;4977446;28;20796;-86
2021/09/28 11:59:38;;;;;;;0.60;0.60;;;18.20;95.60;;;;;;4977563;28;20492;-86
2021/09/28 12:02:05;;;;;;;0.90;0.53;;;18.20;95.30;;;;;;4977572;28;20465;-87
2021/09/28 12:04:54;;;;;;;0.60;0.57;;;18.10;95.30;;;;;;4977875;28;20773;-87
2021/09/28 12:10:13;;;;;;;0.60;0.53;;;18.00;96.00;;;;;;4975958;28;20512;-87
2021/09/28 12:12:41;;;;;;;0.70;0.60;;;17.90;97.10;;;;;;4977669;28;20428;-89
2021/09/28 12:15:24;;;;;;;0.73;0.73;;;17.70;97.60;;;;;;4980708;28;20434;-88
2021/09/28 12:17:51;;;;;;;1.57;0.60;;;17.70;97.80;;;;;;4980048;28;20449;-82
2021/09/28 12:20:21;;;;;;;0.63;0.60;;;17.60;97.30;;;;;;4976636;28;20528;-82
2021/09/28 12:22:51;;;;;;;0.60;0.60;;;17.50;97.70;;;;;;4976655;28;20449;-83
2021/09/28 12:25:24;;;;;;;1.07;0.70;;;17.40;97.80;;;;;;4976202;28;20485;-82
2021/09/28 12:27:57;;;;;;;0.80;0.60;;;17.50;98.50;;;;;;4977135;28;20438;-83
2021/09/28 12:30:28;;;;;;;0.70;0.50;;;17.60;97.90;;;;;;4976483;28;20478;-83
2021/09/28 12:32:56;;;;;;;0.70;0.70;;;17.70;97.60;;;;;;4976330;28;20773;-82
2021/09/28 12:35:32;;;;;;;0.50;0.50;;;17.60;97.70;;;;;;4976393;28;20445;-83
2021/09/28 12:38:02;;;;;;;0.87;0.80;;;17.40;97.80;;;;;;4976394;28;20441;-83
2021/09/28 12:40:31;;;;;;;0.43;0.43;;;17.40;98.50;;;;;;4976530;28;20465;-82
2021/09/28 12:43:06;;;;;;;0.50;0.50;;;17.50;97.70;;;;;;4976279;28;20461;-82
2021/09/28 12:45:45;;;;;;;0.60;0.60;;;17.40;97.50;;;;;;4976150;28;20492;-82
2021/09/28 12:48:13;;;;;;;0.50;0.50;;;17.40;98.00;;;;;;4975773;28;20445;-82
2021/09/28 12:50:41;;;;;;;0.60;0.57;;;17.40;96.80;;;;;;4975492;28;21002;-83
2021/09/28 12:53:11;;;;;;;0.47;0.47;;;17.50;97.00;;;;;;4976048;28;20453;-80
2021/09/28 12:55:38;;;;;;;0.33;0.33;;;17.60;97.10;;;;;;4976063;28;20826;-82
2021/09/28 12:58:06;;;;;;;0.47;0.43;;;17.50;96.20;;;;;;4975950;28;20456;-83
2021/09/28 13:00:34;;;;;;;0.40;0.40;;;17.40;96.30;;;;;;4975593;28;20489;-83